sensor_id;sensor_type;location;lat;lon;timestamp;pressure;altitude;pressure_sealevel;temperature;humidity
63552;BME280;49698;48.072;7.800;2022-07-19T00:00:12;99609.34;;;19.88;67.03
63552;BME280;49698;48.072;7.800;2022-07-19T00:02:41;99596.84;;;19.87;67.03
63552;BME280;49698;48.072;7.800;2022-07-19T00:05:10;99602.31;;;19.87;66.92
63552;BME280;49698;48.072;7.800;2022-07-19T00:07:41;99596.84;;;19.87;67.20
63552;BME280;49698;48.072;7.800;2022-07-19T00:10:11;99595.59;;;19.84;67.31
63552;BME280;49698;48.072;7.800;2022-07-19T00:12:40;99589.00;;;19.85;67.29
63552;BME280;49698;48.072;7.800;2022-07-19T00:15:12;99593.22;;;19.83;67.52
63552;BME280;49698;48.072;7.800;2022-07-19T00:17:42;99594.22;;;19.78;67.60
63552;BME280;49698;48.072;7.800;2022-07-19T00:20:12;99603.41;;;19.73;67.59
63552;BME280;49698;48.072;7.800;2022-07-19T00:22:43;99594.69;;;19.68;67.69
63552;BME280;49698;48.072;7.800;2022-07-19T00:25:12;99595.19;;;19.61;68.19
63552;BME280;49698;48.072;7.800;2022-07-19T00:27:41;99589.06;;;19.52;68.36
63552;BME280;49698;48.072;7.800;2022-07-19T00:30:10;99589.13;;;19.43;68.65
63552;BME280;49698;48.072;7.800;2022-07-19T00:32:38;99591.94;;;19.35;68.94
63552;BME280;49698;48.072;7.800;2022-07-19T00:35:07;99596.47;;;19.30;69.18
63552;BME280;49698;48.072;7.800;2022-07-19T00:37:36;99592.38;;;19.24;69.21
63552;BME280;49698;48.072;7.800;2022-07-19T00:40:10;99591.44;;;19.20;69.36
63552;BME280;49698;48.072;7.800;2022-07-19T00:42:39;99595.53;;;19.14;69.56
63552;BME280;49698;48.072;7.800;2022-07-19T00:45:08;99591.88;;;19.10;69.59
63552;BME280;49698;48.072;7.800;2022-07-19T00:47:38;99592.53;;;19.07;69.77
63552;BME280;49698;48.072;7.800;2022-07-19T00:50:07;99589.38;;;19.05;69.98
63552;BME280;49698;48.072;7.800;2022-07-19T00:52:36;99582.97;;;19.01;70.31
63552;BME280;49698;48.072;7.800;2022-07-19T00:55:09;99588.41;;;19.01;70.33
63552;BME280;49698;48.072;7.800;2022-07-19T00:57:38;99597.41;;;19.01;70.35
63552;BME280;49698;48.072;7.800;2022-07-19T01:00:08;99598.19;;;19.02;69.97
63552;BME280;49698;48.072;7.800;2022-07-19T01:02:38;99602.84;;;19.01;70.10
63552;BME280;49698;48.072;7.800;2022-07-19T01:05:08;99594.56;;;18.98;69.96
63552;BME280;49698;48.072;7.800;2022-07-19T01:07:39;99591.34;;;18.96;70.05
63552;BME280;49698;48.072;7.800;2022-07-19T01:10:11;99599.06;;;18.94;70.15
63552;BME280;49698;48.072;7.800;2022-07-19T01:12:40;99590.44;;;18.92;70.25
63552;BME280;49698;48.072;7.800;2022-07-19T01:15:13;99597.00;;;18.91;70.29
63552;BME280;49698;48.072;7.800;2022-07-19T01:17:42;99597.00;;;18.91;70.29
63552;BME280;49698;48.072;7.800;2022-07-19T01:20:11;99599.75;;;18.91;70.13
63552;BME280;49698;48.072;7.800;2022-07-19T01:22:41;99600.06;;;18.89;70.19
63552;BME280;49698;48.072;7.800;2022-07-19T01:25:10;99591.09;;;18.89;70.40
63552;BME280;49698;48.072;7.800;2022-07-19T01:27:39;99598.00;;;18.86;70.51
63552;BME280;49698;48.072;7.800;2022-07-19T01:30:13;99596.25;;;18.81;70.84
63552;BME280;49698;48.072;7.800;2022-07-19T01:32:41;99601.25;;;18.79;70.87
63552;BME280;49698;48.072;7.800;2022-07-19T01:35:10;99601.25;;;18.79;70.64
63552;BME280;49698;48.072;7.800;2022-07-19T01:37:40;99593.09;;;18.79;70.68
63552;BME280;49698;48.072;7.800;2022-07-19T01:40:11;99596.97;;;18.78;70.51
63552;BME280;49698;48.072;7.800;2022-07-19T01:42:40;99599.19;;;18.76;70.44
63552;BME280;49698;48.072;7.800;2022-07-19T01:45:10;99593.63;;;18.73;70.63
63552;BME280;49698;48.072;7.800;2022-07-19T01:47:39;99596.97;;;18.70;70.61
63552;BME280;49698;48.072;7.800;2022-07-19T01:50:09;99598.75;;;18.66;70.73
63552;BME280;49698;48.072;7.800;2022-07-19T01:52:38;99601.03;;;18.64;70.67
63552;BME280;49698;48.072;7.800;2022-07-19T01:55:11;99586.94;;;18.62;70.69
63552;BME280;49698;48.072;7.800;2022-07-19T01:57:40;99595.91;;;18.62;70.68
63552;BME280;49698;48.072;7.800;2022-07-19T02:00:09;99586.81;;;18.58;70.68
63552;BME280;49698;48.072;7.800;2022-07-19T02:02:41;99587.50;;;18.55;70.53
63552;BME280;49698;48.072;7.800;2022-07-19T02:05:09;99586.56;;;18.51;70.98
63552;BME280;49698;48.072;7.800;2022-07-19T02:07:38;99584.81;;;18.46;71.20
63552;BME280;49698;48.072;7.800;2022-07-19T02:10:07;99578.13;;;18.44;70.99
63552;BME280;49698;48.072;7.800;2022-07-19T02:12:37;99583.88;;;18.42;71.00
63552;BME280;49698;48.072;7.800;2022-07-19T02:15:07;99590.81;;;18.40;71.04
63552;BME280;49698;48.072;7.800;2022-07-19T02:17:35;99581.22;;;18.33;71.45
63552;BME280;49698;48.072;7.800;2022-07-19T02:20:04;99580.28;;;18.29;71.44
63552;BME280;49698;48.072;7.800;2022-07-19T02:22:33;99579.81;;;18.27;71.60
63552;BME280;49698;48.072;7.800;2022-07-19T02:25:01;99580.00;;;18.22;71.68
63552;BME280;49698;48.072;7.800;2022-07-19T02:27:31;99579.06;;;18.18;71.71
63552;BME280;49698;48.072;7.800;2022-07-19T02:30:01;99570.13;;;18.18;71.77
63552;BME280;49698;48.072;7.800;2022-07-19T02:32:29;99569.31;;;18.17;71.65
63552;BME280;49698;48.072;7.800;2022-07-19T02:34:57;99567.25;;;18.14;72.04
63552;BME280;49698;48.072;7.800;2022-07-19T02:37:26;99563.59;;;18.10;72.19
63552;BME280;49698;48.072;7.800;2022-07-19T02:39:54;99565.53;;;18.09;72.35
63552;BME280;49698;48.072;7.800;2022-07-19T02:42:22;99563.13;;;18.08;72.44
63552;BME280;49698;48.072;7.800;2022-07-19T02:44:50;99561.53;;;18.07;72.48
63552;BME280;49698;48.072;7.800;2022-07-19T02:47:19;99561.38;;;18.03;72.43
63552;BME280;49698;48.072;7.800;2022-07-19T02:49:47;99551.16;;;18.00;72.62
63552;BME280;49698;48.072;7.800;2022-07-19T02:52:16;99560.31;;;17.96;72.77
63552;BME280;49698;48.072;7.800;2022-07-19T02:54:44;99568.00;;;17.94;73.00
63552;BME280;49698;48.072;7.800;2022-07-19T02:57:12;99569.78;;;17.90;73.07
63552;BME280;49698;48.072;7.800;2022-07-19T02:59:41;99567.72;;;17.87;72.98
63552;BME280;49698;48.072;7.800;2022-07-19T03:02:09;99565.50;;;17.80;73.09
63552;BME280;49698;48.072;7.800;2022-07-19T03:04:39;99559.44;;;17.74;73.37
63552;BME280;49698;48.072;7.800;2022-07-19T03:07:07;99566.16;;;17.68;73.52
63552;BME280;49698;48.072;7.800;2022-07-19T03:09:36;99580.59;;;17.60;73.57
63552;BME280;49698;48.072;7.800;2022-07-19T03:12:04;99582.53;;;17.51;73.76
63552;BME280;49698;48.072;7.800;2022-07-19T03:14:32;99572.94;;;17.45;74.12
63552;BME280;49698;48.072;7.800;2022-07-19T03:17:01;99578.09;;;17.38;74.22
63552;BME280;49698;48.072;7.800;2022-07-19T03:19:29;99578.44;;;17.27;74.45
63552;BME280;49698;48.072;7.800;2022-07-19T03:21:59;99575.72;;;17.19;74.52
63552;BME280;49698;48.072;7.800;2022-07-19T03:24:28;99577.03;;;17.13;74.95
63552;BME280;49698;48.072;7.800;2022-07-19T03:26:56;99579.59;;;17.09;75.07
63552;BME280;49698;48.072;7.800;2022-07-19T03:29:24;99580.72;;;17.08;74.82
63552;BME280;49698;48.072;7.800;2022-07-19T03:31:55;99578.28;;;17.06;74.97
63552;BME280;49698;48.072;7.800;2022-07-19T03:34:24;99574.31;;;17.04;75.14
63552;BME280;49698;48.072;7.800;2022-07-19T03:36:52;99577.03;;;17.04;75.20
63552;BME280;49698;48.072;7.800;2022-07-19T03:39:22;99588.03;;;17.07;75.28
63552;BME280;49698;48.072;7.800;2022-07-19T03:41:50;99586.16;;;17.08;75.13
63552;BME280;49698;48.072;7.800;2022-07-19T03:44:22;99589.31;;;17.10;75.13
63552;BME280;49698;48.072;7.800;2022-07-19T03:46:50;99581.66;;;17.12;74.99
63552;BME280;49698;48.072;7.800;2022-07-19T03:49:18;99577.81;;;17.13;74.86
63552;BME280;49698;48.072;7.800;2022-07-19T03:51:47;99585.16;;;17.13;74.88
63552;BME280;49698;48.072;7.800;2022-07-19T03:54:15;99596.66;;;17.09;74.87
63552;BME280;49698;48.072;7.800;2022-07-19T03:56:45;99595.38;;;17.07;74.89
63552;BME280;49698;48.072;7.800;2022-07-19T03:59:13;99594.44;;;17.03;75.17
63552;BME280;49698;48.072;7.800;2022-07-19T04:01:42;99599.06;;;17.02;75.09
63552;BME280;49698;48.072;7.800;2022-07-19T04:04:10;99598.28;;;17.02;74.92
63552;BME280;49698;48.072;7.800;2022-07-19T04:06:38;99601.47;;;17.04;74.99
63552;BME280;49698;48.072;7.800;2022-07-19T04:09:06;99595.22;;;17.03;74.92
63552;BME280;49698;48.072;7.800;2022-07-19T04:11:34;99599.22;;;17.06;74.78
63552;BME280;49698;48.072;7.800;2022-07-19T04:14:04;99605.16;;;17.08;74.59
63552;BME280;49698;48.072;7.800;2022-07-19T04:16:32;99614.88;;;17.09;74.98
63552;BME280;49698;48.072;7.800;2022-07-19T04:19:01;99614.41;;;17.07;74.89
63552;BME280;49698;48.072;7.800;2022-07-19T04:21:29;99618.56;;;17.04;74.89
63552;BME280;49698;48.072;7.800;2022-07-19T04:23:58;99621.13;;;17.01;74.93
63552;BME280;49698;48.072;7.800;2022-07-19T04:26:26;99622.88;;;16.97;75.20
63552;BME280;49698;48.072;7.800;2022-07-19T04:28:54;99614.09;;;16.91;75.25
63552;BME280;49698;48.072;7.800;2022-07-19T04:31:24;99626.69;;;16.87;75.38
63552;BME280;49698;48.072;7.800;2022-07-19T04:33:52;99625.28;;;16.81;75.46
63552;BME280;49698;48.072;7.800;2022-07-19T04:36:20;99622.56;;;16.81;75.51
63552;BME280;49698;48.072;7.800;2022-07-19T04:38:49;99626.25;;;16.85;75.38
63552;BME280;49698;48.072;7.800;2022-07-19T04:41:17;99614.88;;;16.92;75.29
63552;BME280;49698;48.072;7.800;2022-07-19T04:43:45;99616.94;;;17.21;74.56
63552;BME280;49698;48.072;7.800;2022-07-19T04:46:13;99625.50;;;17.66;73.13
63552;BME280;49698;48.072;7.800;2022-07-19T04:48:43;99620.72;;;18.10;71.48
63552;BME280;49698;48.072;7.800;2022-07-19T04:51:11;99634.06;;;18.32;70.52
63552;BME280;49698;48.072;7.800;2022-07-19T04:53:40;99629.91;;;18.26;70.64
63552;BME280;49698;48.072;7.800;2022-07-19T04:56:08;99623.94;;;18.12;70.90
63552;BME280;49698;48.072;7.800;2022-07-19T04:58:36;99626.22;;;18.01;71.24
63552;BME280;49698;48.072;7.800;2022-07-19T05:01:04;99624.19;;;17.90;71.73
63552;BME280;49698;48.072;7.800;2022-07-19T05:03:33;99620.38;;;17.82;72.13
63552;BME280;49698;48.072;7.800;2022-07-19T05:06:02;99626.78;;;17.77;72.33
63552;BME280;49698;48.072;7.800;2022-07-19T05:08:31;99624.84;;;17.78;72.38
63552;BME280;49698;48.072;7.800;2022-07-19T05:10:59;99627.72;;;17.81;72.25
63552;BME280;49698;48.072;7.800;2022-07-19T05:13:28;99621.63;;;17.84;72.22
63552;BME280;49698;48.072;7.800;2022-07-19T05:15:56;99626.09;;;17.89;72.15
63552;BME280;49698;48.072;7.800;2022-07-19T05:18:28;99621.75;;;17.97;71.85
63552;BME280;49698;48.072;7.800;2022-07-19T05:20:57;99619.00;;;18.05;71.72
63552;BME280;49698;48.072;7.800;2022-07-19T05:23:26;99623.25;;;18.15;71.60
63552;BME280;49698;48.072;7.800;2022-07-19T05:25:55;99622.88;;;18.25;71.51
63552;BME280;49698;48.072;7.800;2022-07-19T05:28:23;99623.97;;;18.33;71.40
63552;BME280;49698;48.072;7.800;2022-07-19T05:30:51;99628.22;;;18.43;71.35
63552;BME280;49698;48.072;7.800;2022-07-19T05:33:20;99621.59;;;18.52;71.11
63552;BME280;49698;48.072;7.800;2022-07-19T05:35:47;99625.25;;;18.56;71.09
63552;BME280;49698;48.072;7.800;2022-07-19T05:38:15;99628.47;;;18.58;71.03
63552;BME280;49698;48.072;7.800;2022-07-19T05:40:45;99617.50;;;18.67;70.77
63552;BME280;49698;48.072;7.800;2022-07-19T05:43:14;99614.75;;;18.76;70.63
63552;BME280;49698;48.072;7.800;2022-07-19T05:45:43;99619.00;;;18.86;70.38
63552;BME280;49698;48.072;7.800;2022-07-19T05:48:12;99621.66;;;18.94;70.04
63552;BME280;49698;48.072;7.800;2022-07-19T05:50:40;99615.56;;;18.97;70.04
63552;BME280;49698;48.072;7.800;2022-07-19T05:53:07;99615.47;;;19.06;70.00
63552;BME280;49698;48.072;7.800;2022-07-19T05:55:37;99615.53;;;19.18;69.63
63552;BME280;49698;48.072;7.800;2022-07-19T05:58:06;99607.50;;;19.34;69.42
63552;BME280;49698;48.072;7.800;2022-07-19T06:00:34;99605.59;;;19.47;69.08
63552;BME280;49698;48.072;7.800;2022-07-19T06:03:04;99606.09;;;19.61;68.87
63552;BME280;49698;48.072;7.800;2022-07-19T06:05:32;99598.75;;;19.74;68.53
63552;BME280;49698;48.072;7.800;2022-07-19T06:08:00;99605.47;;;19.89;68.14
63552;BME280;49698;48.072;7.800;2022-07-19T06:10:28;99609.13;;;20.05;67.58
63552;BME280;49698;48.072;7.800;2022-07-19T06:12:56;99608.91;;;20.22;67.06
63552;BME280;49698;48.072;7.800;2022-07-19T06:15:25;99600.81;;;20.38;66.48
63552;BME280;49698;48.072;7.800;2022-07-19T06:17:53;99604.34;;;20.51;65.79
63552;BME280;49698;48.072;7.800;2022-07-19T06:20:21;99609.78;;;20.63;65.13
63552;BME280;49698;48.072;7.800;2022-07-19T06:22:49;99606.59;;;20.73;64.50
63552;BME280;49698;48.072;7.800;2022-07-19T06:25:17;99617.81;;;20.84;64.17
63552;BME280;49698;48.072;7.800;2022-07-19T06:27:45;99608.34;;;20.94;63.65
63552;BME280;49698;48.072;7.800;2022-07-19T06:30:13;99608.28;;;21.06;63.52
63552;BME280;49698;48.072;7.800;2022-07-19T06:32:42;99614.06;;;21.17;62.94
63552;BME280;49698;48.072;7.800;2022-07-19T06:35:10;99606.63;;;21.30;62.61
63552;BME280;49698;48.072;7.800;2022-07-19T06:37:38;99607.69;;;21.41;61.98
63552;BME280;49698;48.072;7.800;2022-07-19T06:40:07;99611.19;;;21.54;61.58
63552;BME280;49698;48.072;7.800;2022-07-19T06:42:35;99610.31;;;21.65;61.43
63552;BME280;49698;48.072;7.800;2022-07-19T06:45:04;99611.72;;;21.75;60.97
63552;BME280;49698;48.072;7.800;2022-07-19T06:47:32;99614.34;;;21.87;60.69
63552;BME280;49698;48.072;7.800;2022-07-19T06:50:02;99604.47;;;21.98;60.46
63552;BME280;49698;48.072;7.800;2022-07-19T06:52:47;99596.97;;;22.11;60.18
63552;BME280;49698;48.072;7.800;2022-07-19T06:55:16;99601.22;;;22.25;59.55
63552;BME280;49698;48.072;7.800;2022-07-19T06:57:44;99600.75;;;22.38;59.35
63552;BME280;49698;48.072;7.800;2022-07-19T07:00:13;99604.25;;;22.55;58.59
63552;BME280;49698;48.072;7.800;2022-07-19T07:02:42;99610.84;;;22.69;58.02
63552;BME280;49698;48.072;7.800;2022-07-19T07:05:12;99609.97;;;22.85;57.47
63552;BME280;49698;48.072;7.800;2022-07-19T07:07:40;99601.34;;;23.02;56.67
63552;BME280;49698;48.072;7.800;2022-07-19T07:10:09;99595.84;;;23.22;55.83
63552;BME280;49698;48.072;7.800;2022-07-19T07:12:37;99600.03;;;23.35;55.19
63552;BME280;49698;48.072;7.800;2022-07-19T07:15:06;99595.16;;;23.48;54.68
63552;BME280;49698;48.072;7.800;2022-07-19T07:17:35;99600.53;;;23.63;53.94
63552;BME280;49698;48.072;7.800;2022-07-19T07:20:05;99592.16;;;23.76;53.66
63552;BME280;49698;48.072;7.800;2022-07-19T07:22:35;99599.78;;;23.86;52.72
63552;BME280;49698;48.072;7.800;2022-07-19T07:25:04;99591.34;;;23.98;52.32
63552;BME280;49698;48.072;7.800;2022-07-19T07:27:32;99594.66;;;24.11;51.73
63552;BME280;49698;48.072;7.800;2022-07-19T07:30:00;99587.81;;;24.24;51.58
63552;BME280;49698;48.072;7.800;2022-07-19T07:32:28;99583.31;;;24.39;51.03
63552;BME280;49698;48.072;7.800;2022-07-19T07:34:56;99581.97;;;24.52;50.95
63552;BME280;49698;48.072;7.800;2022-07-19T07:37:24;99580.50;;;24.62;50.70
63552;BME280;49698;48.072;7.800;2022-07-19T07:39:54;99578.72;;;24.77;49.96
63552;BME280;49698;48.072;7.800;2022-07-19T07:42:22;99585.66;;;24.97;48.83
63552;BME280;49698;48.072;7.800;2022-07-19T07:44:51;99585.50;;;25.17;48.15
63552;BME280;49698;48.072;7.800;2022-07-19T07:47:19;99585.31;;;25.36;47.30
63552;BME280;49698;48.072;7.800;2022-07-19T07:49:47;99583.56;;;25.58;45.97
63552;BME280;49698;48.072;7.800;2022-07-19T07:52:17;99582.56;;;25.77;45.30
63552;BME280;49698;48.072;7.800;2022-07-19T07:54:45;99578.84;;;25.99;44.75
63552;BME280;49698;48.072;7.800;2022-07-19T07:57:26;99571.50;;;26.18;44.09
63552;BME280;49698;48.072;7.800;2022-07-19T07:59:54;99570.81;;;26.35;43.80
63552;BME280;49698;48.072;7.800;2022-07-19T08:02:22;99573.31;;;26.54;43.26
63552;BME280;49698;48.072;7.800;2022-07-19T08:04:50;99563.53;;;26.71;42.94
63552;BME280;49698;48.072;7.800;2022-07-19T08:07:18;99565.19;;;26.94;42.78
63552;BME280;49698;48.072;7.800;2022-07-19T08:09:46;99558.19;;;27.21;42.34
63552;BME280;49698;48.072;7.800;2022-07-19T08:12:14;99555.06;;;27.44;41.85
63552;BME280;49698;48.072;7.800;2022-07-19T08:14:43;99551.94;;;27.64;41.92
63552;BME280;49698;48.072;7.800;2022-07-19T08:17:11;99553.16;;;27.77;41.59
63552;BME280;49698;48.072;7.800;2022-07-19T08:19:39;99555.91;;;27.88;41.02
63552;BME280;49698;48.072;7.800;2022-07-19T08:22:07;99552.75;;;27.96;41.39
63552;BME280;49698;48.072;7.800;2022-07-19T08:24:35;99544.47;;;28.03;41.49
63552;BME280;49698;48.072;7.800;2022-07-19T08:27:03;99536.13;;;28.07;41.48
63552;BME280;49698;48.072;7.800;2022-07-19T08:29:31;99544.41;;;28.11;41.39
63552;BME280;49698;48.072;7.800;2022-07-19T08:32:00;99537.72;;;28.15;41.48
63552;BME280;49698;48.072;7.800;2022-07-19T08:34:28;99540.84;;;28.28;41.08
63552;BME280;49698;48.072;7.800;2022-07-19T08:36:56;99538.44;;;28.44;41.39
63552;BME280;49698;48.072;7.800;2022-07-19T08:39:24;99532.13;;;28.51;41.30
63552;BME280;49698;48.072;7.800;2022-07-19T08:41:52;99535.22;;;28.64;40.88
63552;BME280;49698;48.072;7.800;2022-07-19T08:44:21;99533.53;;;28.84;40.87
63552;BME280;49698;48.072;7.800;2022-07-19T08:46:49;99536.66;;;29.00;40.45
63552;BME280;49698;48.072;7.800;2022-07-19T08:49:19;99526.25;;;29.15;40.12
63552;BME280;49698;48.072;7.800;2022-07-19T08:51:48;99529.38;;;29.24;39.75
63552;BME280;49698;48.072;7.800;2022-07-19T08:54:16;99525.84;;;29.24;39.56
63552;BME280;49698;48.072;7.800;2022-07-19T08:56:44;99520.25;;;29.31;38.91
63552;BME280;49698;48.072;7.800;2022-07-19T08:59:30;99519.03;;;29.32;38.83
63552;BME280;49698;48.072;7.800;2022-07-19T09:01:58;99526.94;;;29.34;38.43
63552;BME280;49698;48.072;7.800;2022-07-19T09:04:28;99526.84;;;29.48;38.53
63552;BME280;49698;48.072;7.800;2022-07-19T09:06:58;99533.09;;;29.59;38.55
63552;BME280;49698;48.072;7.800;2022-07-19T09:09:28;99525.94;;;29.62;38.77
63552;BME280;49698;48.072;7.800;2022-07-19T09:11:58;99521.88;;;29.73;38.94
63552;BME280;49698;48.072;7.800;2022-07-19T09:14:29;99530.50;;;29.86;38.94
63552;BME280;49698;48.072;7.800;2022-07-19T09:16:59;99527.28;;;29.91;38.59
63552;BME280;49698;48.072;7.800;2022-07-19T09:19:35;99523.28;;;29.92;38.18
63552;BME280;49698;48.072;7.800;2022-07-19T09:22:05;99525.25;;;29.95;38.04
63552;BME280;49698;48.072;7.800;2022-07-19T09:24:36;99516.88;;;30.03;37.44
63552;BME280;49698;48.072;7.800;2022-07-19T09:27:06;99518.31;;;30.14;37.26
63552;BME280;49698;48.072;7.800;2022-07-19T09:29:36;99515.06;;;30.27;36.72
63552;BME280;49698;48.072;7.800;2022-07-19T09:32:09;99505.84;;;30.37;35.96
63552;BME280;49698;48.072;7.800;2022-07-19T09:34:41;99508.88;;;30.46;35.36
63552;BME280;49698;48.072;7.800;2022-07-19T09:37:17;99505.31;;;30.45;35.11
63552;BME280;49698;48.072;7.800;2022-07-19T09:39:49;99502.94;;;30.48;35.12
63552;BME280;49698;48.072;7.800;2022-07-19T09:42:21;99505.97;;;30.57;35.38
63552;BME280;49698;48.072;7.800;2022-07-19T09:44:57;99501.09;;;30.68;35.16
63552;BME280;49698;48.072;7.800;2022-07-19T09:47:33;99499.34;;;30.81;34.83
63552;BME280;49698;48.072;7.800;2022-07-19T09:50:05;99492.84;;;30.91;34.96
63552;BME280;49698;48.072;7.800;2022-07-19T09:52:34;99498.56;;;31.08;34.96
63552;BME280;49698;48.072;7.800;2022-07-19T09:55:08;99497.13;;;31.23;34.74
63552;BME280;49698;48.072;7.800;2022-07-19T09:57:39;99480.47;;;31.23;34.51
63552;BME280;49698;48.072;7.800;2022-07-19T10:00:09;99481.97;;;31.31;34.62
63552;BME280;49698;48.072;7.800;2022-07-19T10:02:40;99478.22;;;31.41;34.55
63552;BME280;49698;48.072;7.800;2022-07-19T10:05:11;99472.25;;;31.43;34.58
63552;BME280;49698;48.072;7.800;2022-07-19T10:07:40;99472.19;;;31.47;33.99
63552;BME280;49698;48.072;7.800;2022-07-19T10:10:10;99467.72;;;31.53;34.19
63552;BME280;49698;48.072;7.800;2022-07-19T10:12:40;99468.66;;;31.66;33.78
63552;BME280;49698;48.072;7.800;2022-07-19T10:15:09;99466.16;;;31.75;33.64
63552;BME280;49698;48.072;7.800;2022-07-19T10:17:40;99460.09;;;31.80;33.69
63552;BME280;49698;48.072;7.800;2022-07-19T10:20:16;99461.88;;;31.90;33.17
63552;BME280;49698;48.072;7.800;2022-07-19T10:22:44;99460.97;;;31.97;32.97
63552;BME280;49698;48.072;7.800;2022-07-19T10:25:14;99463.28;;;32.02;32.98
63552;BME280;49698;48.072;7.800;2022-07-19T10:27:45;99457.16;;;32.11;33.30
63552;BME280;49698;48.072;7.800;2022-07-19T10:30:38;99459.06;;;32.14;32.70
63552;BME280;49698;48.072;7.800;2022-07-19T10:35:51;99443.81;;;32.22;32.11
63552;BME280;49698;48.072;7.800;2022-07-19T10:38:19;99442.16;;;32.25;32.43
63552;BME280;49698;48.072;7.800;2022-07-19T10:40:48;99440.72;;;32.36;32.31
63552;BME280;49698;48.072;7.800;2022-07-19T10:43:18;99437.66;;;32.51;32.08
63552;BME280;49698;48.072;7.800;2022-07-19T10:46:08;99429.50;;;32.60;31.94
63552;BME280;49698;48.072;7.800;2022-07-19T10:48:38;99440.06;;;32.69;32.07
63552;BME280;49698;48.072;7.800;2022-07-19T10:51:10;99438.75;;;32.73;31.70
63552;BME280;49698;48.072;7.800;2022-07-19T10:54:01;99431.28;;;32.86;31.78
63552;BME280;49698;48.072;7.800;2022-07-19T10:56:55;99435.41;;;32.98;31.24
63552;BME280;49698;48.072;7.800;2022-07-19T10:59:32;99429.94;;;33.11;30.66
63552;BME280;49698;48.072;7.800;2022-07-19T11:02:01;99425.75;;;33.19;30.59
63552;BME280;49698;48.072;7.800;2022-07-19T11:04:49;99425.47;;;33.30;30.43
63552;BME280;49698;48.072;7.800;2022-07-19T11:07:22;99422.50;;;33.37;30.05
63552;BME280;49698;48.072;7.800;2022-07-19T11:09:53;99420.84;;;33.40;29.68
63552;BME280;49698;48.072;7.800;2022-07-19T11:12:38;99418.84;;;33.40;29.57
63552;BME280;49698;48.072;7.800;2022-07-19T11:15:09;99412.41;;;33.43;29.19
63552;BME280;49698;48.072;7.800;2022-07-19T11:17:39;99411.91;;;33.48;28.66
63552;BME280;49698;48.072;7.800;2022-07-19T11:20:10;99411.25;;;33.57;28.50
63552;BME280;49698;48.072;7.800;2022-07-19T11:22:41;99399.41;;;33.69;28.03
63552;BME280;49698;48.072;7.800;2022-07-19T11:25:11;99403.56;;;33.77;27.83
63552;BME280;49698;48.072;7.800;2022-07-19T11:27:43;99400.03;;;33.90;27.86
63552;BME280;49698;48.072;7.800;2022-07-19T11:30:12;99391.09;;;33.95;28.03
63552;BME280;49698;48.072;7.800;2022-07-19T11:32:42;99393.72;;;34.02;27.89
63552;BME280;49698;48.072;7.800;2022-07-19T11:35:12;99385.94;;;34.10;27.50
63552;BME280;49698;48.072;7.800;2022-07-19T11:37:42;99391.41;;;34.13;27.21
63552;BME280;49698;48.072;7.800;2022-07-19T11:40:11;99383.72;;;34.17;27.24
63552;BME280;49698;48.072;7.800;2022-07-19T11:42:44;99383.50;;;34.24;27.06
63552;BME280;49698;48.072;7.800;2022-07-19T11:45:41;99384.19;;;34.28;27.17
63552;BME280;49698;48.072;7.800;2022-07-19T11:48:09;99377.03;;;34.27;27.04
63552;BME280;49698;48.072;7.800;2022-07-19T11:50:37;99379.59;;;34.35;26.91
63552;BME280;49698;48.072;7.800;2022-07-19T11:53:19;99373.25;;;34.47;26.62
63552;BME280;49698;48.072;7.800;2022-07-19T11:55:47;99378.09;;;34.59;26.84
63552;BME280;49698;48.072;7.800;2022-07-19T11:58:16;99379.72;;;34.69;26.52
63552;BME280;49698;48.072;7.800;2022-07-19T12:00:44;99373.38;;;34.82;26.03
63552;BME280;49698;48.072;7.800;2022-07-19T12:03:14;99377.16;;;34.88;25.70
63552;BME280;49698;48.072;7.800;2022-07-19T12:05:54;99365.22;;;34.87;25.28
63552;BME280;49698;48.072;7.800;2022-07-19T12:08:36;99362.88;;;34.86;25.37
63552;BME280;49698;48.072;7.800;2022-07-19T12:11:29;99356.28;;;34.79;25.39
63552;BME280;49698;48.072;7.800;2022-07-19T12:13:57;99352.72;;;34.79;25.14
63552;BME280;49698;48.072;7.800;2022-07-19T12:16:25;99346.56;;;34.84;25.26
63552;BME280;49698;48.072;7.800;2022-07-19T12:18:54;99345.53;;;34.91;24.39
63552;BME280;49698;48.072;7.800;2022-07-19T12:21:25;99342.63;;;34.94;24.36
63552;BME280;49698;48.072;7.800;2022-07-19T12:24:13;99343.97;;;35.02;23.84
63552;BME280;49698;48.072;7.800;2022-07-19T12:26:43;99337.69;;;35.11;23.82
63552;BME280;49698;48.072;7.800;2022-07-19T12:29:22;99336.78;;;35.14;23.64
63552;BME280;49698;48.072;7.800;2022-07-19T12:31:51;99330.44;;;35.14;23.19
63552;BME280;49698;48.072;7.800;2022-07-19T12:34:19;99326.72;;;35.17;23.22
63552;BME280;49698;48.072;7.800;2022-07-19T12:36:48;99317.00;;;35.21;23.42
63552;BME280;49698;48.072;7.800;2022-07-19T12:39:23;99325.13;;;35.28;23.35
63552;BME280;49698;48.072;7.800;2022-07-19T12:41:54;99321.75;;;35.34;23.49
63552;BME280;49698;48.072;7.800;2022-07-19T12:44:22;99319.94;;;35.40;23.44
63552;BME280;49698;48.072;7.800;2022-07-19T12:46:50;99315.91;;;35.41;23.23
63552;BME280;49698;48.072;7.800;2022-07-19T12:49:41;99297.25;;;35.38;22.56
63552;BME280;49698;48.072;7.800;2022-07-19T12:52:09;99302.81;;;35.38;22.77
63552;BME280;49698;48.072;7.800;2022-07-19T12:54:38;99300.03;;;35.38;22.85
63552;BME280;49698;48.072;7.800;2022-07-19T12:57:07;99298.13;;;35.35;23.09
63552;BME280;49698;48.072;7.800;2022-07-19T12:59:34;99299.97;;;35.28;23.02
63552;BME280;49698;48.072;7.800;2022-07-19T13:02:11;99297.50;;;35.31;23.32
63552;BME280;49698;48.072;7.800;2022-07-19T13:04:40;99302.94;;;35.34;23.22
63552;BME280;49698;48.072;7.800;2022-07-19T13:07:10;99300.28;;;35.31;23.21
63552;BME280;49698;48.072;7.800;2022-07-19T13:09:40;99293.59;;;35.28;23.37
63552;BME280;49698;48.072;7.800;2022-07-19T13:12:09;99299.38;;;35.34;22.93
63552;BME280;49698;48.072;7.800;2022-07-19T13:14:37;99293.78;;;35.34;22.89
63552;BME280;49698;48.072;7.800;2022-07-19T13:17:06;99288.66;;;35.32;22.68